createdAt,value
2022-07-29T00:01:44.430Z,2.35
2022-07-29T00:04:12.664Z,2.50
2022-07-29T00:06:40.909Z,2.63
2022-07-29T00:09:09.033Z,2.40
2022-07-29T00:11:36.911Z,2.50
2022-07-29T00:14:04.769Z,2.47
2022-07-29T00:16:32.611Z,2.35
2022-07-29T00:19:02.433Z,2.35
2022-07-29T00:21:30.474Z,2.65
2022-07-29T00:23:58.256Z,2.20
2022-07-29T00:26:26.137Z,2.90
2022-07-29T00:29:06.343Z,2.50
2022-07-29T00:31:41.683Z,2.78
2022-07-29T00:34:30.893Z,2.63
2022-07-29T00:36:58.108Z,2.65
2022-07-29T00:39:25.901Z,2.80
2022-07-29T00:41:55.354Z,2.75
2022-07-29T00:44:23.165Z,2.40
2022-07-29T00:46:51.006Z,2.83
2022-07-29T00:49:20.283Z,2.83
2022-07-29T00:51:48.701Z,2.60
2022-07-29T00:54:17.004Z,2.90
2022-07-29T00:56:45.505Z,2.60
2022-07-29T00:59:13.389Z,2.67
2022-07-29T01:01:41.210Z,3.00
2022-07-29T01:04:09.330Z,2.90
2022-07-29T01:06:38.622Z,2.90
2022-07-29T01:09:06.873Z,2.97
2022-07-29T01:11:35.649Z,2.83
2022-07-29T01:14:04.411Z,2.47
2022-07-29T01:16:34.704Z,2.58
2022-07-29T01:19:09.480Z,2.80
2022-07-29T01:21:53.063Z,2.60
2022-07-29T01:24:36.046Z,2.75
2022-07-29T01:27:18.207Z,2.78
2022-07-29T01:29:55.437Z,2.78
2022-07-29T01:32:29.475Z,2.67
2022-07-29T01:35:02.662Z,3.20
2022-07-29T01:37:34.643Z,2.90
2022-07-29T01:40:05.442Z,2.90
2022-07-29T01:42:38.493Z,2.88
2022-07-29T01:45:12.835Z,2.55
2022-07-29T01:47:45.131Z,2.65
2022-07-29T01:50:16.620Z,2.88
2022-07-29T01:52:49.052Z,6.57
2022-07-29T01:55:19.693Z,3.20
2022-07-29T01:57:49.866Z,2.90
2022-07-29T02:00:20.214Z,2.92
2022-07-29T02:02:50.192Z,2.70
2022-07-29T02:05:21.082Z,3.10
2022-07-29T02:07:49.945Z,2.90
2022-07-29T02:10:20.867Z,2.83
2022-07-29T02:12:55.938Z,2.80
2022-07-29T02:15:26.448Z,2.88
2022-07-29T02:17:59.750Z,3.03
2022-07-29T02:20:29.753Z,3.00
2022-07-29T02:22:59.079Z,2.63
2022-07-29T02:25:36.774Z,2.88
2022-07-29T02:28:07.209Z,3.03
2022-07-29T02:30:40.947Z,3.05
2022-07-29T02:33:10.450Z,3.22
2022-07-29T02:35:39.846Z,3.58
2022-07-29T02:38:25.500Z,3.28
2022-07-29T02:40:55.153Z,3.53
2022-07-29T02:43:24.520Z,3.10
2022-07-29T02:45:57.042Z,3.10
2022-07-29T02:48:33.312Z,3.08
2022-07-29T02:51:08.600Z,3.13
2022-07-29T02:53:40.290Z,3.03
2022-07-29T02:56:12.530Z,3.28
2022-07-29T02:58:43.466Z,3.85
2022-07-29T03:01:19.365Z,3.40
2022-07-29T03:03:51.623Z,3.42
2022-07-29T03:06:28.868Z,3.45
2022-07-29T03:09:12.825Z,3.50
2022-07-29T03:11:49.452Z,3.00
2022-07-29T03:14:20.343Z,3.10
2022-07-29T03:16:50.932Z,3.67
2022-07-29T03:19:19.133Z,3.42
2022-07-29T03:21:46.963Z,3.47
2022-07-29T03:24:30.280Z,3.67
2022-07-29T03:26:58.770Z,4.50
2022-07-29T03:29:33.235Z,3.50
2022-07-29T03:32:06.011Z,3.20
2022-07-29T03:34:35.237Z,3.00
2022-07-29T03:37:02.960Z,3.42
2022-07-29T03:39:35.680Z,3.22
2022-07-29T03:42:04.952Z,2.88
2022-07-29T03:44:34.187Z,2.90
2022-07-29T03:47:06.049Z,3.45
2022-07-29T03:49:38.391Z,3.10
2022-07-29T03:52:07.002Z,2.80
2022-07-29T03:54:35.403Z,2.45
2022-07-29T03:57:05.380Z,2.88
2022-07-29T03:59:35.619Z,2.63
2022-07-29T04:02:06.384Z,2.80
2022-07-29T04:04:35.674Z,3.20
2022-07-29T04:07:03.881Z,2.53
2022-07-29T04:09:32.281Z,3.13
2022-07-29T04:12:03.003Z,2.97
2022-07-29T04:14:32.988Z,2.95
2022-07-29T04:17:00.860Z,3.13
2022-07-29T04:19:30.042Z,2.60
2022-07-29T04:21:57.857Z,2.85
2022-07-29T04:24:25.647Z,3.42
2022-07-29T04:26:53.588Z,2.60
2022-07-29T04:29:21.492Z,2.70
2022-07-29T04:31:49.357Z,2.63
2022-07-29T04:34:17.527Z,2.85
2022-07-29T04:36:47.075Z,3.00
2022-07-29T04:39:19.298Z,3.15
2022-07-29T04:41:51.031Z,3.08
2022-07-29T04:44:20.288Z,2.90
2022-07-29T04:46:48.238Z,4.40
2022-07-29T04:49:16.156Z,3.90
2022-07-29T04:51:43.960Z,4.03
2022-07-29T04:54:13.289Z,3.83
2022-07-29T04:56:42.421Z,3.90
2022-07-29T04:59:10.574Z,3.80
2022-07-29T05:01:41.002Z,3.40
2022-07-29T05:04:08.979Z,4.32
2022-07-29T05:06:36.873Z,4.22
2022-07-29T05:09:04.801Z,3.63
2022-07-29T05:11:33.874Z,3.28
2022-07-29T05:14:01.673Z,2.72
2022-07-29T05:16:29.429Z,3.20
2022-07-29T05:18:57.175Z,3.05
2022-07-29T05:21:25.013Z,3.22
2022-07-29T05:23:52.784Z,3.53
2022-07-29T05:26:20.738Z,4.82
2022-07-29T05:28:49.942Z,3.20
2022-07-29T05:31:17.788Z,3.10
2022-07-29T05:33:45.597Z,3.00
2022-07-29T05:36:13.361Z,3.30
2022-07-29T05:38:41.159Z,3.05
2022-07-29T05:41:08.945Z,3.28
2022-07-29T05:43:36.747Z,3.35
2022-07-29T05:46:05.913Z,3.42
2022-07-29T05:48:33.785Z,3.10
2022-07-29T05:51:01.697Z,3.28
2022-07-29T05:53:29.549Z,4.00
2022-07-29T05:55:57.560Z,3.28
2022-07-29T05:58:25.429Z,3.40
2022-07-29T06:00:53.729Z,3.25
2022-07-29T06:03:22.873Z,3.10
2022-07-29T06:05:50.632Z,3.30
2022-07-29T06:08:18.512Z,2.85
2022-07-29T06:10:47.187Z,3.10
2022-07-29T06:13:16.773Z,4.18
2022-07-29T06:15:44.862Z,3.35
2022-07-29T06:18:14.251Z,2.95
2022-07-29T06:20:43.437Z,3.58
2022-07-29T06:23:11.398Z,3.58
2022-07-29T06:25:40.326Z,3.70
2022-07-29T06:28:08.088Z,3.42
2022-07-29T06:30:35.939Z,4.47
2022-07-29T06:33:04.091Z,3.67
2022-07-29T06:35:38.827Z,3.63
2022-07-29T06:38:29.929Z,4.43
2022-07-29T06:41:04.660Z,3.47
2022-07-29T06:43:36.555Z,3.70
2022-07-29T06:46:20.351Z,3.40
2022-07-29T06:48:49.079Z,3.60
2022-07-29T06:51:22.486Z,4.50
2022-07-29T06:54:00.283Z,3.25
2022-07-29T06:56:30.910Z,3.67
2022-07-29T06:58:58.961Z,3.10
2022-07-29T07:01:26.826Z,3.00
2022-07-29T07:03:54.625Z,3.55
2022-07-29T07:06:22.479Z,3.83
2022-07-29T07:08:51.670Z,3.60
2022-07-29T07:11:21.290Z,3.65
2022-07-29T07:13:49.229Z,3.42
2022-07-29T07:16:17.343Z,2.90
2022-07-29T07:18:46.059Z,3.53
2022-07-29T07:21:19.162Z,3.63
2022-07-29T07:23:47.389Z,3.20
2022-07-29T07:26:16.955Z,3.50
2022-07-29T07:28:44.812Z,2.65
2022-07-29T07:31:12.725Z,3.15
2022-07-29T07:33:40.661Z,4.15
2022-07-29T07:36:08.576Z,3.58
2022-07-29T07:38:36.336Z,3.10
2022-07-29T07:41:04.168Z,3.67
2022-07-29T07:43:33.341Z,3.45
2022-07-29T07:46:01.182Z,3.30
2022-07-29T07:48:29.072Z,3.40
2022-07-29T07:50:56.913Z,3.65
2022-07-29T07:53:24.772Z,3.90
2022-07-29T07:56:09.866Z,3.92
2022-07-29T08:01:08.025Z,4.45
2022-07-29T08:03:35.885Z,3.78
2022-07-29T08:06:03.857Z,3.55
2022-07-29T08:08:31.791Z,3.42
2022-07-29T08:11:00.628Z,3.95
2022-07-29T08:13:31.338Z,4.10
2022-07-29T08:16:02.483Z,3.90
2022-07-29T08:18:31.943Z,4.07
2022-07-29T08:21:00.295Z,3.78
2022-07-29T08:23:46.144Z,3.50
2022-07-29T08:26:17.133Z,4.20
2022-07-29T08:28:47.060Z,4.03
2022-07-29T08:31:16.877Z,4.00
2022-07-29T08:33:44.858Z,3.80
2022-07-29T08:36:13.921Z,3.38
2022-07-29T08:38:41.831Z,3.90
2022-07-29T08:41:09.667Z,3.78
2022-07-29T08:43:39.013Z,3.90
2022-07-29T08:46:06.945Z,3.47
2022-07-29T08:48:36.272Z,4.47
2022-07-29T08:51:04.797Z,4.38
2022-07-29T08:53:34.028Z,3.45
2022-07-29T08:56:03.690Z,3.72
2022-07-29T08:58:36.765Z,4.03
2022-07-29T09:01:07.709Z,3.40
2022-07-29T09:06:09.996Z,3.67
2022-07-29T09:08:37.774Z,3.58
2022-07-29T09:11:06.030Z,3.47
2022-07-29T09:13:33.868Z,3.45
2022-07-29T09:16:05.783Z,3.45
2022-07-29T09:18:38.205Z,3.67
2022-07-29T09:21:26.803Z,3.25
2022-07-29T09:24:03.255Z,3.70
2022-07-29T09:26:31.821Z,4.35
2022-07-29T09:29:00.275Z,4.00
2022-07-29T09:31:36.042Z,3.67
2022-07-29T09:34:04.399Z,3.72
2022-07-29T09:36:40.226Z,3.75
2022-07-29T09:39:08.561Z,3.88
2022-07-29T09:41:50.123Z,3.40
2022-07-29T09:44:18.417Z,3.50
2022-07-29T09:47:00.322Z,3.67
2022-07-29T09:49:28.402Z,3.35
2022-07-29T09:52:06.791Z,3.58
2022-07-29T09:54:37.638Z,3.25
2022-07-29T09:57:06.541Z,3.28
2022-07-29T09:59:35.345Z,3.33
2022-07-29T10:02:03.381Z,3.70
2022-07-29T10:04:42.424Z,3.78
2022-07-29T10:07:11.889Z,3.10
2022-07-29T10:09:39.898Z,3.78
2022-07-29T10:12:10.027Z,3.72
2022-07-29T10:14:38.945Z,3.63
2022-07-29T10:17:08.676Z,3.58
2022-07-29T10:19:37.892Z,3.80
2022-07-29T10:22:08.081Z,3.53
2022-07-29T10:24:39.149Z,3.55
2022-07-29T10:27:09.189Z,3.28
2022-07-29T10:29:37.249Z,3.00
2022-07-29T10:32:36.533Z,3.65
2022-07-29T10:35:17.128Z,3.20
2022-07-29T10:38:06.899Z,3.67
2022-07-29T10:41:01.941Z,3.35
2022-07-29T10:43:33.695Z,3.33
2022-07-29T10:46:02.671Z,3.85
2022-07-29T10:48:31.043Z,3.30
2022-07-29T10:51:01.255Z,3.67
2022-07-29T10:53:51.718Z,4.32
2022-07-29T10:56:31.733Z,3.15
2022-07-29T10:59:36.122Z,3.78
2022-07-29T11:02:41.400Z,3.60
2022-07-29T11:05:12.721Z,2.92
2022-07-29T11:07:46.434Z,3.63
2022-07-29T11:10:26.957Z,3.67
2022-07-29T11:15:31.736Z,2.97
2022-07-29T11:18:15.306Z,3.10
2022-07-29T11:20:46.818Z,3.00
2022-07-29T11:23:25.341Z,3.35
2022-07-29T11:26:18.903Z,3.20
2022-07-29T11:28:55.739Z,4.10
2022-07-29T11:31:36.631Z,5.30
2022-07-29T11:34:27.988Z,3.13
2022-07-29T11:37:17.644Z,3.47
2022-07-29T11:39:47.719Z,3.30
2022-07-29T11:42:41.980Z,3.20
2022-07-29T11:45:43.862Z,3.30
2022-07-29T11:48:28.982Z,3.72
2022-07-29T11:51:00.991Z,2.92
2022-07-29T11:53:32.659Z,3.13
2022-07-29T11:56:02.712Z,3.17
2022-07-29T11:58:31.121Z,3.08
2022-07-29T12:01:04.298Z,3.42
2022-07-29T12:03:36.041Z,3.13
2022-07-29T12:06:07.364Z,3.00
2022-07-29T12:08:43.238Z,2.92
2022-07-29T12:11:21.263Z,3.20
2022-07-29T12:13:49.778Z,3.35
2022-07-29T12:16:25.958Z,3.08
2022-07-29T12:19:02.402Z,3.28
2022-07-29T12:21:31.337Z,3.45
2022-07-29T12:24:05.733Z,3.35
2022-07-29T12:26:37.979Z,3.55
2022-07-29T12:29:11.617Z,3.20
2022-07-29T12:31:45.424Z,2.85
2022-07-29T12:34:14.195Z,3.50
2022-07-29T12:36:43.452Z,3.38
2022-07-29T12:39:12.284Z,3.78
2022-07-29T12:41:40.639Z,3.15
2022-07-29T12:44:08.538Z,3.88
2022-07-29T12:46:36.446Z,5.28
2022-07-29T12:49:06.207Z,2.97
2022-07-29T12:51:37.266Z,3.78
2022-07-29T12:54:07.916Z,3.55
2022-07-29T12:56:44.780Z,3.05
2022-07-29T12:59:19.394Z,2.70
2022-07-29T13:01:48.862Z,2.72
2022-07-29T13:04:27.982Z,3.20
2022-07-29T13:07:04.669Z,2.97
2022-07-29T13:09:39.675Z,3.17
2022-07-29T13:12:10.833Z,3.10
2022-07-29T13:14:40.707Z,3.00
2022-07-29T13:17:10.953Z,2.60
2022-07-29T13:19:42.180Z,3.25
2022-07-29T13:22:10.973Z,3.47
2022-07-29T13:24:52.496Z,3.15
2022-07-29T13:27:21.930Z,2.80
2022-07-29T13:29:52.142Z,2.75
2022-07-29T13:32:20.436Z,3.28
2022-07-29T13:34:58.647Z,2.60
2022-07-29T13:37:30.289Z,2.70
2022-07-29T13:39:58.197Z,2.60
2022-07-29T13:42:26.703Z,2.83
2022-07-29T13:44:54.700Z,3.22
2022-07-29T13:47:32.619Z,2.92
2022-07-29T13:50:02.609Z,3.42
2022-07-29T13:52:30.826Z,2.85
2022-07-29T13:54:58.705Z,3.13
2022-07-29T13:57:26.582Z,3.42
2022-07-29T13:59:54.730Z,2.63
2022-07-29T14:02:25.592Z,2.60
2022-07-29T14:04:54.871Z,2.95
2022-07-29T14:07:24.741Z,3.08
2022-07-29T14:09:52.679Z,3.13
2022-07-29T14:12:20.558Z,3.05
2022-07-29T14:14:49.013Z,2.70
2022-07-29T14:17:16.876Z,2.83
2022-07-29T14:19:44.767Z,2.40
2022-07-29T14:22:12.763Z,2.60
2022-07-29T14:24:41.992Z,2.45
2022-07-29T14:27:10.990Z,2.15
2022-07-29T14:29:39.027Z,2.92
2022-07-29T14:32:12.884Z,2.50
2022-07-29T14:34:40.899Z,2.90
2022-07-29T14:37:09.343Z,2.50
2022-07-29T14:39:42.930Z,2.33
2022-07-29T14:42:13.900Z,2.65
2022-07-29T14:44:42.051Z,2.35
2022-07-29T14:47:09.918Z,3.00
2022-07-29T14:49:37.825Z,2.53
2022-07-29T14:52:06.513Z,2.40
2022-07-29T14:54:34.329Z,2.63
2022-07-29T14:57:02.151Z,2.70
2022-07-29T14:59:31.337Z,2.50
2022-07-29T15:01:59.515Z,2.80
2022-07-29T15:04:27.444Z,2.63
2022-07-29T15:06:55.271Z,2.90
2022-07-29T15:09:24.020Z,2.50
2022-07-29T15:11:51.829Z,2.67
2022-07-29T15:14:21.145Z,2.72
2022-07-29T15:16:52.863Z,2.97
2022-07-29T15:19:20.993Z,2.63
2022-07-29T15:21:49.413Z,2.47
2022-07-29T15:24:17.749Z,2.67
2022-07-29T15:26:45.773Z,2.70
2022-07-29T15:29:14.230Z,2.85
2022-07-29T15:31:42.342Z,2.40
2022-07-29T15:34:11.762Z,2.40
2022-07-29T15:36:51.965Z,2.50
2022-07-29T15:39:21.259Z,2.20
2022-07-29T15:41:49.459Z,2.45
2022-07-29T15:44:17.467Z,2.55
2022-07-29T15:47:02.939Z,2.30
2022-07-29T15:52:18.849Z,2.22
2022-07-29T15:54:46.885Z,2.58
2022-07-29T15:57:15.207Z,2.08
2022-07-29T15:59:43.014Z,2.00
2022-07-29T16:02:11.092Z,2.10
2022-07-29T16:04:40.368Z,1.88
2022-07-29T16:07:08.408Z,1.80
2022-07-29T16:09:36.169Z,1.92
2022-07-29T16:12:09.966Z,1.88
2022-07-29T16:14:43.072Z,2.75
2022-07-29T16:17:14.382Z,1.95
2022-07-29T16:19:45.263Z,1.58
2022-07-29T16:22:13.300Z,1.40
2022-07-29T16:24:41.610Z,1.30
2022-07-29T16:27:09.525Z,1.45
2022-07-29T16:29:38.362Z,1.80
2022-07-29T16:32:06.981Z,1.60
2022-07-29T16:34:34.846Z,1.88
2022-07-29T16:37:04.474Z,1.60
2022-07-29T16:39:32.663Z,1.35
2022-07-29T16:42:02.406Z,1.60
2022-07-29T16:44:33.374Z,1.83
2022-07-29T16:47:02.655Z,1.70
2022-07-29T16:49:31.766Z,1.98
2022-07-29T16:51:59.589Z,2.40
2022-07-29T16:54:29.857Z,2.63
2022-07-29T16:57:00.591Z,1.10
2022-07-29T16:59:29.037Z,1.60
2022-07-29T17:01:56.953Z,1.60
2022-07-29T17:04:24.779Z,1.40
2022-07-29T17:06:52.677Z,1.60
2022-07-29T17:09:21.007Z,1.85
2022-07-29T17:11:55.087Z,1.75
2022-07-29T17:14:25.487Z,1.20
2022-07-29T17:17:02.579Z,1.38
2022-07-29T17:19:31.837Z,1.35
2022-07-29T17:22:08.399Z,1.77
2022-07-29T17:24:38.378Z,1.60
2022-07-29T17:27:08.389Z,2.13
2022-07-29T17:29:36.237Z,2.38
2022-07-29T17:32:04.225Z,2.30
2022-07-29T17:34:37.827Z,2.70
2022-07-29T17:37:06.114Z,2.78
2022-07-29T17:39:35.432Z,2.70
2022-07-29T17:42:03.363Z,2.60
2022-07-29T17:44:32.987Z,2.17
2022-07-29T17:47:05.116Z,2.97
2022-07-29T17:49:33.538Z,2.80
2022-07-29T17:52:05.891Z,2.75
2022-07-29T17:54:33.721Z,2.78
2022-07-29T17:57:01.809Z,2.67
2022-07-29T17:59:29.831Z,2.63
2022-07-29T18:01:59.171Z,2.60
2022-07-29T18:04:28.503Z,3.00
2022-07-29T18:06:56.677Z,2.70
2022-07-29T18:09:24.739Z,2.65
2022-07-29T18:11:52.560Z,2.22
2022-07-29T18:14:20.343Z,2.13
2022-07-29T18:16:48.317Z,2.75
2022-07-29T18:19:17.506Z,2.53
2022-07-29T18:21:51.348Z,2.10
2022-07-29T18:24:22.800Z,2.50
2022-07-29T18:26:50.616Z,2.30
2022-07-29T18:29:18.899Z,2.63
2022-07-29T18:31:46.809Z,2.72
2022-07-29T18:34:14.685Z,2.78
2022-07-29T18:36:43.827Z,2.47
2022-07-29T18:39:13.170Z,2.70
2022-07-29T18:41:50.133Z,2.70
2022-07-29T18:44:19.194Z,2.47
2022-07-29T18:46:58.018Z,2.40
2022-07-29T18:49:26.181Z,2.70
2022-07-29T18:51:56.751Z,2.70
2022-07-29T18:54:24.766Z,2.88
2022-07-29T18:56:53.089Z,2.45
2022-07-29T18:59:21.939Z,2.67
2022-07-29T19:01:50.140Z,2.97
2022-07-29T19:04:18.356Z,2.90
2022-07-29T19:06:46.447Z,2.88
2022-07-29T19:09:17.164Z,3.00
2022-07-29T19:11:44.992Z,2.80
2022-07-29T19:14:13.006Z,2.65
2022-07-29T19:16:40.870Z,2.83
2022-07-29T19:19:08.706Z,3.13
2022-07-29T19:21:37.258Z,3.00
2022-07-29T19:24:11.058Z,2.63
2022-07-29T19:26:46.553Z,2.72
2022-07-29T19:29:14.976Z,3.03
2022-07-29T19:31:43.390Z,3.20
2022-07-29T19:34:11.402Z,2.40
2022-07-29T19:36:39.473Z,3.13
2022-07-29T19:39:07.563Z,3.00
2022-07-29T19:41:35.465Z,3.20
2022-07-29T19:44:06.164Z,2.70
2022-07-29T19:46:40.362Z,3.25
2022-07-29T19:49:10.022Z,3.05
2022-07-29T19:51:38.094Z,2.95
2022-07-29T19:54:06.932Z,2.85
2022-07-29T19:56:34.774Z,3.28
2022-07-29T19:59:10.427Z,3.10
2022-07-29T20:01:38.248Z,3.17
2022-07-29T20:04:06.245Z,2.83
2022-07-29T20:06:34.458Z,3.80
2022-07-29T20:09:02.449Z,3.38
2022-07-29T20:11:30.565Z,3.53
2022-07-29T20:13:58.462Z,3.50
2022-07-29T20:16:28.001Z,2.95
2022-07-29T20:18:55.897Z,2.60
2022-07-29T20:21:23.732Z,2.70
2022-07-29T20:23:51.618Z,3.00
2022-07-29T20:26:19.473Z,2.90
2022-07-29T20:28:49.395Z,2.72
2022-07-29T20:31:18.639Z,2.90
2022-07-29T20:33:47.837Z,3.17
2022-07-29T20:36:16.116Z,3.40
2022-07-29T20:38:43.967Z,3.55
2022-07-29T20:41:12.925Z,3.83
2022-07-29T20:43:40.872Z,3.80
2022-07-29T20:46:08.934Z,4.32
2022-07-29T20:48:36.930Z,5.40
2022-07-29T20:51:06.285Z,5.28
2022-07-29T20:53:34.344Z,5.43
2022-07-29T20:56:02.221Z,6.85
2022-07-29T20:58:30.134Z,7.03
2022-07-29T21:00:58.207Z,5.03
2022-07-29T21:03:27.806Z,4.38
2022-07-29T21:05:55.668Z,4.20
2022-07-29T21:08:25.129Z,3.95
2022-07-29T21:10:53.046Z,4.05
2022-07-29T21:13:22.905Z,3.17
2022-07-29T21:15:51.844Z,3.22
2022-07-29T21:18:30.002Z,4.40
2022-07-29T21:20:59.609Z,4.65
2022-07-29T21:23:29.958Z,5.05
2022-07-29T21:25:58.444Z,4.90
2022-07-29T21:28:29.389Z,4.55
2022-07-29T21:30:59.193Z,4.68
2022-07-29T21:33:28.888Z,4.35
2022-07-29T21:36:26.677Z,4.50
2022-07-29T21:38:46.303Z,4.57
2022-07-29T21:41:15.323Z,4.30
2022-07-29T21:43:43.204Z,4.05
2022-07-29T21:46:11.088Z,3.85
2022-07-29T21:48:43.902Z,4.45
2022-07-29T21:51:12.446Z,4.20
2022-07-29T21:53:40.219Z,4.15
2022-07-29T21:56:14.377Z,4.15
2022-07-29T21:58:42.821Z,4.13
2022-07-29T22:01:10.647Z,4.30
2022-07-29T22:03:38.664Z,4.07
2022-07-29T22:06:06.656Z,4.10
2022-07-29T22:08:34.451Z,4.22
2022-07-29T22:11:02.582Z,3.85
2022-07-29T22:13:31.778Z,3.97
2022-07-29T22:15:59.565Z,4.03
2022-07-29T22:18:27.497Z,4.43
2022-07-29T22:20:55.354Z,4.30
2022-07-29T22:23:23.145Z,4.63
2022-07-29T22:25:51.104Z,4.47
2022-07-29T22:28:18.874Z,4.30
2022-07-29T22:30:48.127Z,5.30
2022-07-29T22:33:17.730Z,4.55
2022-07-29T22:35:48.697Z,5.03
2022-07-29T22:38:17.192Z,4.03
2022-07-29T22:40:44.959Z,4.63
2022-07-29T22:43:15.406Z,4.75
2022-07-29T22:45:43.404Z,4.20
2022-07-29T22:48:12.754Z,4.53
2022-07-29T22:50:40.716Z,5.00
2022-07-29T22:53:08.564Z,4.75
2022-07-29T22:55:36.505Z,4.80
2022-07-29T22:58:04.301Z,4.80
2022-07-29T23:00:32.272Z,4.93
2022-07-29T23:03:00.162Z,4.63
2022-07-29T23:05:29.324Z,4.35
2022-07-29T23:07:57.112Z,5.10
2022-07-29T23:10:25.016Z,4.65
2022-07-29T23:12:52.776Z,5.25
2022-07-29T23:15:20.785Z,5.20
2022-07-29T23:17:48.722Z,5.03
2022-07-29T23:20:16.541Z,4.80
2022-07-29T23:22:45.884Z,5.15
2022-07-29T23:25:13.727Z,4.90
2022-07-29T23:27:41.865Z,5.30
2022-07-29T23:30:10.984Z,4.70
2022-07-29T23:32:38.789Z,4.63
2022-07-29T23:35:08.277Z,4.63
2022-07-29T23:37:36.493Z,5.20
2022-07-29T23:40:09.671Z,4.97
2022-07-29T23:42:40.317Z,6.10
2022-07-29T23:45:09.250Z,5.65
2022-07-29T23:47:37.075Z,5.10
2022-07-29T23:50:05.716Z,5.20
2022-07-29T23:52:33.662Z,4.28
2022-07-29T23:55:37.997Z,4.57
2022-07-29T23:57:53.061Z,4.82
